createdAt,value
2024-05-09T00:01:23.862Z,3.53
2024-05-09T00:04:25.512Z,3.20
2024-05-09T00:07:27.014Z,4.80
2024-05-09T00:10:35.568Z,4.43
2024-05-09T00:13:39.494Z,6.00
2024-05-09T00:16:43.684Z,3.55
2024-05-09T00:19:45.393Z,3.45
2024-05-09T00:22:47.037Z,3.97
2024-05-09T00:25:48.678Z,4.43
2024-05-09T00:28:50.566Z,3.72
2024-05-09T00:34:56.331Z,3.87
2024-05-09T00:37:57.954Z,4.35
2024-05-09T00:40:59.621Z,7.35
2024-05-09T00:44:01.608Z,3.88
2024-05-09T00:47:03.984Z,5.10
2024-05-09T00:50:15.494Z,4.97
2024-05-09T00:53:20.712Z,4.43
2024-05-09T00:56:22.515Z,4.70
2024-05-09T00:59:24.664Z,12.55
2024-05-09T01:02:26.563Z,4.20
2024-05-09T01:08:32.514Z,4.90
2024-05-09T01:11:36.417Z,4.57
2024-05-09T01:14:38.518Z,4.30
2024-05-09T01:20:44.330Z,4.18
2024-05-09T01:23:49.627Z,4.28
2024-05-09T01:26:51.228Z,4.60
2024-05-09T01:29:52.736Z,4.28
2024-05-09T01:32:54.435Z,4.60
2024-05-09T01:35:56.098Z,3.63
2024-05-09T01:39:00.260Z,6.20
2024-05-09T01:42:01.799Z,5.00
2024-05-09T01:45:03.446Z,5.40
2024-05-09T01:48:05.680Z,4.35
2024-05-09T01:51:07.496Z,4.45
2024-05-09T01:54:11.750Z,4.68
2024-05-09T01:57:13.262Z,5.88
2024-05-09T02:00:22.161Z,6.72
2024-05-09T02:03:31.173Z,6.32
2024-05-09T02:06:38.746Z,4.22
2024-05-09T02:09:42.864Z,4.82
2024-05-09T02:12:44.439Z,6.03
2024-05-09T02:15:45.986Z,4.80
2024-05-09T02:18:47.617Z,5.05
2024-05-09T02:21:49.295Z,4.28
2024-05-09T02:24:53.421Z,5.93
2024-05-09T02:27:55.188Z,4.40
2024-05-09T02:30:56.719Z,4.85
2024-05-09T02:33:58.416Z,4.97
2024-05-09T02:37:00.065Z,5.45
2024-05-09T02:40:05.768Z,5.13
2024-05-09T02:43:10.358Z,5.05
2024-05-09T02:46:12.887Z,6.78
2024-05-09T02:49:14.574Z,5.13
2024-05-09T02:52:17.819Z,4.95
2024-05-09T02:55:22.043Z,5.00
2024-05-09T02:58:23.580Z,5.20
2024-05-09T03:01:25.336Z,6.10
2024-05-09T03:04:26.902Z,5.60
2024-05-09T03:07:28.456Z,6.50
2024-05-09T03:10:35.845Z,5.68
2024-05-09T03:13:41.170Z,5.18
2024-05-09T03:16:42.748Z,5.22
2024-05-09T03:19:44.391Z,6.05
2024-05-09T03:22:46.059Z,5.05
2024-05-09T03:25:50.165Z,5.85
2024-05-09T03:28:51.729Z,7.07
2024-05-09T03:31:53.314Z,5.65
2024-05-09T03:34:54.924Z,5.43
2024-05-09T03:37:56.569Z,5.13
2024-05-09T03:41:00.816Z,5.50
2024-05-09T03:44:02.445Z,5.03
2024-05-09T03:47:04.198Z,5.70
2024-05-09T03:50:14.945Z,6.07
2024-05-09T03:53:19.618Z,8.32
2024-05-09T03:56:24.636Z,6.75
2024-05-09T03:59:26.304Z,7.82
2024-05-09T04:02:28.108Z,5.80
2024-05-09T04:05:29.763Z,8.45
2024-05-09T04:08:31.601Z,6.20
2024-05-09T04:11:35.909Z,7.40
2024-05-09T04:14:37.562Z,7.47
2024-05-09T04:17:39.617Z,8.90
2024-05-09T04:20:41.635Z,9.13
2024-05-09T04:23:43.480Z,11.30
2024-05-09T04:26:47.624Z,9.35
2024-05-09T04:29:49.358Z,9.50
2024-05-09T04:32:51.062Z,8.95
2024-05-09T04:38:54.034Z,9.03
2024-05-09T04:41:58.228Z,9.60
2024-05-09T04:44:59.805Z,11.05
2024-05-09T04:48:02.104Z,10.57
2024-05-09T04:51:06.768Z,9.55
2024-05-09T04:54:10.747Z,10.50
2024-05-09T04:57:17.110Z,9.73
2024-05-09T05:00:28.102Z,10.63
2024-05-09T05:03:34.356Z,10.10
2024-05-09T05:06:36.004Z,8.90
2024-05-09T05:09:37.494Z,9.57
2024-05-09T05:12:41.551Z,10.60
2024-05-09T05:15:43.143Z,11.10
2024-05-09T05:18:44.782Z,11.32
2024-05-09T05:24:47.730Z,11.70
2024-05-09T05:27:51.881Z,11.73
2024-05-09T05:30:53.454Z,12.50
2024-05-09T05:33:55.008Z,11.45
2024-05-09T05:36:57.075Z,11.25
2024-05-09T05:39:58.598Z,11.57
2024-05-09T05:43:02.753Z,11.27
2024-05-09T05:46:04.411Z,12.10
2024-05-09T05:52:07.516Z,11.57
2024-05-09T05:55:09.007Z,15.00
2024-05-09T05:58:13.065Z,11.70
2024-05-09T06:01:14.644Z,13.73
2024-05-09T06:07:17.643Z,12.52
2024-05-09T06:10:25.779Z,13.55
2024-05-09T06:13:34.441Z,11.13
2024-05-09T06:16:36.066Z,14.40
2024-05-09T06:19:37.601Z,13.90
2024-05-09T06:22:39.114Z,13.13
2024-05-09T06:25:40.626Z,12.13
2024-05-09T06:28:44.837Z,14.68
2024-05-09T06:31:46.387Z,12.68
2024-05-09T06:34:48.130Z,15.43
2024-05-09T06:37:49.837Z,13.25
2024-05-09T06:40:51.463Z,16.90
2024-05-09T06:43:55.615Z,16.73
2024-05-09T06:46:59.377Z,13.57
2024-05-09T06:50:02.646Z,11.63
2024-05-09T06:53:04.499Z,12.35
2024-05-09T06:59:10.084Z,12.45
2024-05-09T07:02:11.749Z,14.15
2024-05-09T07:08:15.186Z,11.23
2024-05-09T07:11:16.889Z,13.07
2024-05-09T07:17:22.951Z,12.68
2024-05-09T07:20:32.429Z,11.20
2024-05-09T07:23:36.533Z,12.23
2024-05-09T07:29:39.903Z,11.45
2024-05-09T07:35:45.541Z,15.35
2024-05-09T07:38:47.157Z,11.30
2024-05-09T07:44:50.047Z,11.15
2024-05-09T07:54:20.185Z,10.25
2024-05-09T07:57:21.771Z,9.63
2024-05-09T08:03:32.645Z,9.63
2024-05-09T08:06:37.017Z,10.13
2024-05-09T08:09:38.767Z,8.73
2024-05-09T08:12:40.494Z,8.85
2024-05-09T08:15:42.235Z,9.32
2024-05-09T08:18:43.851Z,15.50
2024-05-09T08:21:48.466Z,10.00
2024-05-09T08:24:50.958Z,8.32
2024-05-09T08:27:52.670Z,6.60
2024-05-09T08:30:54.391Z,6.18
2024-05-09T08:33:56.172Z,6.85
2024-05-09T08:37:03.862Z,7.68
2024-05-09T08:40:19.752Z,4.65
2024-05-09T08:43:29.466Z,5.57
2024-05-09T08:46:32.220Z,6.18
2024-05-09T08:49:37.059Z,4.72
2024-05-09T08:52:42.043Z,5.03
2024-05-09T08:55:44.652Z,4.57
2024-05-09T08:58:46.934Z,4.45
2024-05-09T09:01:48.971Z,8.27
2024-05-09T09:04:52.842Z,4.25
2024-05-09T09:07:57.181Z,6.97
2024-05-09T09:10:59.332Z,4.63
2024-05-09T09:14:00.973Z,5.38
2024-05-09T09:17:11.900Z,3.72
2024-05-09T09:20:16.614Z,8.77
2024-05-09T09:23:26.819Z,5.28
2024-05-09T09:26:30.230Z,6.95
2024-05-09T09:29:31.710Z,7.38
2024-05-09T09:32:33.731Z,6.43
2024-05-09T09:35:36.013Z,6.45
2024-05-09T09:38:40.648Z,4.65
2024-05-09T09:41:44.005Z,5.38
2024-05-09T09:44:51.393Z,4.70
2024-05-09T09:47:59.679Z,4.72
2024-05-09T09:51:01.439Z,4.93
2024-05-09T09:54:05.903Z,5.32
2024-05-09T09:57:08.237Z,5.55
2024-05-09T10:00:11.961Z,5.18
2024-05-09T10:03:19.146Z,4.50
2024-05-09T10:06:21.614Z,7.15
2024-05-09T10:09:25.997Z,6.05
2024-05-09T10:12:27.553Z,6.93
2024-05-09T10:15:29.323Z,3.80
2024-05-09T10:18:35.986Z,6.18
2024-05-09T10:21:48.092Z,4.80
2024-05-09T10:24:53.065Z,4.07
2024-05-09T10:27:55.178Z,4.30
2024-05-09T10:31:03.522Z,5.35
2024-05-09T10:34:05.338Z,4.93
2024-05-09T10:37:07.011Z,3.25
2024-05-09T10:40:23.344Z,4.18
2024-05-09T10:43:31.069Z,6.85
2024-05-09T10:46:32.763Z,4.55
2024-05-09T10:49:34.364Z,4.63
2024-05-09T10:52:39.918Z,4.82
2024-05-09T10:55:44.035Z,3.35
2024-05-09T10:58:45.561Z,12.35
2024-05-09T11:01:47.193Z,4.00
2024-05-09T11:04:53.146Z,4.65
2024-05-09T11:08:04.658Z,4.95
2024-05-09T11:11:09.180Z,4.40
2024-05-09T11:14:13.957Z,5.03
2024-05-09T11:17:15.526Z,5.95
2024-05-09T11:20:23.236Z,4.40
2024-05-09T11:23:31.115Z,4.03
2024-05-09T11:26:35.313Z,4.13
2024-05-09T11:29:37.091Z,3.80
2024-05-09T11:32:38.616Z,5.43
2024-05-09T11:35:40.796Z,4.05
2024-05-09T11:38:42.590Z,6.10
2024-05-09T11:41:46.736Z,4.53
2024-05-09T11:44:48.267Z,3.50
2024-05-09T11:47:50.206Z,2.65
2024-05-09T11:50:51.869Z,4.75
2024-05-09T11:53:53.427Z,4.30
2024-05-09T11:56:57.508Z,4.25
2024-05-09T11:59:59.074Z,6.28
2024-05-09T12:03:00.828Z,3.38
2024-05-09T12:06:03.615Z,6.13
2024-05-09T12:09:05.239Z,6.82
2024-05-09T12:12:09.364Z,4.25
2024-05-09T12:15:12.743Z,4.47
2024-05-09T12:18:14.430Z,5.28
2024-05-09T12:21:16.065Z,5.93
2024-05-09T12:24:18.541Z,5.88
2024-05-09T12:27:23.019Z,3.67
2024-05-09T12:30:34.436Z,4.05
2024-05-09T12:33:39.635Z,5.18
2024-05-09T12:36:43.091Z,5.05
2024-05-09T12:39:44.705Z,3.60
2024-05-09T12:42:49.555Z,4.63
2024-05-09T12:45:51.169Z,4.13
2024-05-09T12:48:52.912Z,3.83
2024-05-09T12:51:54.658Z,5.07
2024-05-09T12:54:56.241Z,4.38
2024-05-09T12:58:00.453Z,4.95
2024-05-09T13:01:02.122Z,6.53
2024-05-09T13:04:04.323Z,4.82
2024-05-09T13:07:07.853Z,5.15
2024-05-09T13:10:25.390Z,4.28
2024-05-09T13:13:35.414Z,4.15
2024-05-09T13:16:37.075Z,4.28
2024-05-09T13:19:38.640Z,4.93
2024-05-09T13:22:40.143Z,5.43
2024-05-09T13:25:41.626Z,4.28
2024-05-09T13:28:45.834Z,7.50
2024-05-09T13:31:47.441Z,5.78
2024-05-09T13:34:49.244Z,4.55
2024-05-09T13:37:50.896Z,4.50
2024-05-09T13:40:52.716Z,5.35
2024-05-09T13:43:56.975Z,8.45
2024-05-09T13:46:58.630Z,4.07
2024-05-09T13:50:00.608Z,11.45
2024-05-09T13:53:02.268Z,4.78
2024-05-09T13:56:04.055Z,5.03
2024-05-09T13:59:08.509Z,6.57
2024-05-09T14:02:10.251Z,4.65
2024-05-09T14:05:12.267Z,7.35
2024-05-09T14:08:13.931Z,5.72
2024-05-09T14:11:15.563Z,3.70
2024-05-09T14:14:19.762Z,3.80
2024-05-09T14:17:21.342Z,3.55
2024-05-09T14:20:30.123Z,3.80
2024-05-09T14:23:33.534Z,4.03
2024-05-09T14:26:34.992Z,5.22
2024-05-09T14:29:39.147Z,3.83
2024-05-09T14:32:40.725Z,4.55
2024-05-09T14:35:42.267Z,5.05
2024-05-09T14:38:43.759Z,4.75
2024-05-09T14:41:45.317Z,5.22
2024-05-09T14:44:49.383Z,5.30
2024-05-09T14:47:51.001Z,6.97
2024-05-09T14:50:52.572Z,8.07
2024-05-09T14:53:54.071Z,6.55
2024-05-09T14:56:55.647Z,6.53
2024-05-09T14:59:59.815Z,7.28
2024-05-09T15:03:01.521Z,8.05
2024-05-09T15:06:03.259Z,9.02
2024-05-09T15:09:04.780Z,10.65
2024-05-09T15:12:06.381Z,6.90
2024-05-09T15:15:10.746Z,7.10
2024-05-09T15:18:12.554Z,11.23
2024-05-09T15:21:14.111Z,10.95
2024-05-09T15:24:15.567Z,7.07
2024-05-09T15:27:18.092Z,6.60
2024-05-09T15:30:29.801Z,9.00
2024-05-09T15:33:33.772Z,7.82
2024-05-09T15:36:35.605Z,7.20
2024-05-09T15:39:37.136Z,6.70
2024-05-09T15:42:41.028Z,7.15
2024-05-09T15:45:46.807Z,7.75
2024-05-09T15:48:48.534Z,6.65
2024-05-09T15:51:50.177Z,7.78
2024-05-09T15:54:51.743Z,7.38
2024-05-09T15:57:53.331Z,7.25
2024-05-09T16:00:57.616Z,6.72
2024-05-09T16:03:59.532Z,6.82
2024-05-09T16:07:01.226Z,7.93
2024-05-09T16:10:04.182Z,6.13
2024-05-09T16:13:06.839Z,7.78
2024-05-09T16:16:11.253Z,7.43
2024-05-09T16:19:13.195Z,6.75
2024-05-09T16:22:14.974Z,6.00
2024-05-09T16:25:20.143Z,5.97
2024-05-09T16:28:23.053Z,8.50
2024-05-09T16:31:28.714Z,5.80
2024-05-09T16:34:30.340Z,9.60
2024-05-09T16:37:31.956Z,6.55
2024-05-09T16:40:38.360Z,6.60
2024-05-09T16:43:42.313Z,6.05
2024-05-09T16:46:46.487Z,6.03
2024-05-09T16:49:48.087Z,6.85
2024-05-09T16:52:49.643Z,5.95
2024-05-09T16:55:51.255Z,6.82
2024-05-09T16:58:59.741Z,6.78
2024-05-09T17:02:04.315Z,7.38
2024-05-09T17:05:06.712Z,5.93
2024-05-09T17:08:08.534Z,7.38
2024-05-09T17:11:10.399Z,10.40
2024-05-09T17:14:11.928Z,7.93
2024-05-09T17:17:16.117Z,7.28
2024-05-09T17:20:28.853Z,6.65
2024-05-09T17:23:35.192Z,7.32
2024-05-09T17:26:36.750Z,6.68
2024-05-09T17:29:38.265Z,6.85
2024-05-09T17:32:42.458Z,6.47
2024-05-09T17:35:44.225Z,7.65
2024-05-09T17:38:45.878Z,6.35
2024-05-09T17:41:47.423Z,8.55
2024-05-09T17:44:48.887Z,6.10
2024-05-09T17:47:53.379Z,6.80
2024-05-09T17:50:55.059Z,6.05
2024-05-09T17:53:56.602Z,6.32
2024-05-09T17:56:58.156Z,7.07
2024-05-09T17:59:59.674Z,7.32
2024-05-09T18:03:04.258Z,6.00
2024-05-09T18:06:06.036Z,5.70
2024-05-09T18:09:07.662Z,6.93
2024-05-09T18:12:09.338Z,6.15
2024-05-09T18:15:10.964Z,7.15
2024-05-09T18:18:15.272Z,5.82
2024-05-09T18:21:18.542Z,5.93
2024-05-09T18:24:25.018Z,6.28
2024-05-09T18:27:26.635Z,7.20
2024-05-09T18:30:33.976Z,6.40
2024-05-09T18:33:40.361Z,7.20
2024-05-09T18:36:42.015Z,5.95
2024-05-09T18:39:43.595Z,5.35
2024-05-09T18:42:45.307Z,5.50
2024-05-09T18:45:47.045Z,5.18
2024-05-09T18:48:51.695Z,7.15
2024-05-09T18:51:53.376Z,5.35
2024-05-09T18:54:54.917Z,5.13
2024-05-09T18:57:56.594Z,5.13
2024-05-09T19:01:00.826Z,4.95
2024-05-09T19:04:06.070Z,5.82
2024-05-09T19:07:08.054Z,4.93
2024-05-09T19:10:21.281Z,4.53
2024-05-09T19:13:24.281Z,5.35
2024-05-09T19:16:25.950Z,6.30
2024-05-09T19:19:30.434Z,5.13
2024-05-09T19:22:32.144Z,4.78
2024-05-09T19:25:33.791Z,5.25
2024-05-09T19:28:35.294Z,4.95
2024-05-09T19:34:40.740Z,4.78
2024-05-09T19:37:43.822Z,5.32
2024-05-09T19:40:45.466Z,5.15
2024-05-09T19:43:47.011Z,4.40
2024-05-09T19:46:48.574Z,6.13
2024-05-09T19:49:52.803Z,5.28
2024-05-09T19:52:54.342Z,5.00
2024-05-09T19:58:57.235Z,5.47
2024-05-09T20:05:03.159Z,5.70
2024-05-09T20:08:05.072Z,5.65
2024-05-09T20:11:06.648Z,6.15
2024-05-09T20:14:08.179Z,6.05
2024-05-09T20:20:23.971Z,6.07
2024-05-09T20:23:33.574Z,5.35
2024-05-09T20:29:36.401Z,5.95
2024-05-09T20:35:41.956Z,6.55
2024-05-09T20:38:43.535Z,5.05
2024-05-09T20:44:46.375Z,6.65
2024-05-09T20:50:51.902Z,6.32
2024-05-09T20:53:53.464Z,6.65
2024-05-09T20:59:56.310Z,5.65
2024-05-09T21:06:01.783Z,6.22
2024-05-09T21:09:03.304Z,7.20
2024-05-09T21:15:06.679Z,6.93
2024-05-09T21:18:08.303Z,6.57
2024-05-09T21:24:14.242Z,7.70
2024-05-09T21:27:15.740Z,7.25
2024-05-09T21:30:26.744Z,6.88
2024-05-09T21:33:34.044Z,7.28
2024-05-09T21:36:35.752Z,8.45
2024-05-09T21:42:41.311Z,6.38
2024-05-09T21:45:46.959Z,6.53
2024-05-09T21:48:48.498Z,7.10
2024-05-09T21:54:52.052Z,6.97
2024-05-09T21:57:56.195Z,7.30
2024-05-09T22:00:57.766Z,7.45
2024-05-09T22:07:00.898Z,9.25
2024-05-09T22:13:07.157Z,7.50
2024-05-09T22:16:08.916Z,7.82
2024-05-09T22:22:11.991Z,7.57
2024-05-09T22:28:17.732Z,7.65
2024-05-09T22:31:19.293Z,7.68
2024-05-09T22:34:21.058Z,6.95
2024-05-09T22:37:22.778Z,6.28
2024-05-09T22:43:37.204Z,7.38
2024-05-09T22:46:38.770Z,7.95
2024-05-09T22:49:40.446Z,6.85
2024-05-09T22:52:41.988Z,7.18
2024-05-09T22:55:43.560Z,7.78
2024-05-09T23:01:55.568Z,7.18
2024-05-09T23:04:57.256Z,7.90
2024-05-09T23:11:00.357Z,6.43
2024-05-09T23:14:02.022Z,6.70
2024-05-09T23:17:06.281Z,6.22
2024-05-09T23:20:11.436Z,6.50
2024-05-09T23:23:13.397Z,7.55
2024-05-09T23:26:14.887Z,7.25
2024-05-09T23:29:16.414Z,6.68
2024-05-09T23:32:20.649Z,6.22
2024-05-09T23:35:28.818Z,7.53
2024-05-09T23:38:30.316Z,6.10
2024-05-09T23:41:31.769Z,5.90
2024-05-09T23:44:33.305Z,6.57
2024-05-09T23:47:44.892Z,6.93
2024-05-09T23:50:46.526Z,7.03
2024-05-09T23:53:48.046Z,7.38
2024-05-09T23:56:49.520Z,5.95
2024-05-09T23:59:51.055Z,6.53
